Página principal
METAR-TAF:

METAR-TAF

Aeroportos :

Aeroporto Internacional de Cartum

Cartum, Sudão

latitude: 15-36N, longitude: 032-33E, altura: 382 m

Observação actual do tempo

O boletim foi feito há 18 minutos, às 03:30 UTC
Vento 8 kt de norte
Temperatura 17°C
Humidade 36%
Pressão 1017 hPa
Visibilidade 10 km ou mais
sem nuvens abaixo de 1500 metros e sem cumulonimbus

METAR: HSSS 140330Z 35008KT CAVOK 17/02 Q1017 NOSIG

Hora: 06:48 (03:48 UTC)

Previsão

O boletim foi feito há 4 horas e 48 minutos, às 23:00 UTC
Previsão válida de 14 às 00 UTC a 15 às 06 UTC
Vento 12 kt de nor-noroeste com rajadas de 22 kt
Visibilidade 10 km ou mais
sem nuvens abaixo de 1500 metros e sem cumulonimbus
Temporariamente
de 14 às 04 UTC a 14 às 09 UTC
Visibilidade: 6000 m

TAF: HSSS 132300Z 1400/1506 34012G22KT CAVOK TEMPO 1404/1409 6000 NSC

Observações e previsões do tempo de mais de 4000 aeroportos (mensagens METAR e TAF).

As estações disponíveis são os pontos amarelos e vermelhos sobre o mapa.

Mova o rato sobre o mapa para ver o nome da estação.

Depois clique no ponto para visualizar as observações e previsões meteorológicas.

Para alterar o mapa : clique nos botões verdes com uma cruz preta para aumentar o zoom; no botão verde com uma pitada de zoom; ou nas setas verdes para mapas adjacentes.


METAR-TAF: